Pagrindinis puslapis
METAR-TAF:

METAR-TAF

Oro uostai :

Tanabe, Japonija

platuma: 33-44N, ilguma: 135-23E, Aukštis: 105 m

Dabartinis oras

Ataskaita buvo paskelbta 46 minutes, ne 00:00 UTC
Vėjas 12 kt iš Šiaurės/Šiaurės Vakarų
Temperatūra 9°C
Drėgmė 53%
Slėgis 1026 hPa
Matomumas 10 km arba daugiau
Mažai debesys ne aukštis 3000 ft
Išsisklaidę debesys ne aukštis 18000 ft
Su prošvaistėmis

METAR: RJBD 150000Z 34012KT 9999 FEW030 SCT180 BKN/// 09/00 Q1026

Laikas: 09:46 (00:46 UTC)


TAF: trūkstamas

Orai ataskaitas ir orų prognozės (METAR, TAF).

turimą stotys yra geltonos ir raudonos taškus žemėlapyje.

Perkelti pele per norėdami pamatyti stoties vardą.

Tada spustelėkite, norėdami matyti oro stebėjimo ir prognozės.

Norėdami pakeisti žemėlapį: spustelėkite ant žalios mygtukų su juodo kryžiaus žemyn,; žalią mygtuką su brūkšneliu, jei norite nutolinti; arba žalių rodyklių gretimoms žemėlapius.


METAR-TAF: